createdAt,value
2022-12-09T00:01:23.192Z,24.20
2022-12-09T00:03:50.928Z,26.08
2022-12-09T00:06:29.537Z,25.13
2022-12-09T00:08:58.067Z,25.05
2022-12-09T00:11:28.410Z,26.30
2022-12-09T00:13:57.375Z,25.10
2022-12-09T00:16:26.025Z,26.52
2022-12-09T00:18:57.603Z,24.27
2022-12-09T00:21:30.133Z,24.80
2022-12-09T00:23:59.312Z,26.25
2022-12-09T00:26:27.705Z,24.83
2022-12-09T00:28:56.146Z,24.55
2022-12-09T00:31:26.028Z,25.02
2022-12-09T00:33:56.478Z,25.30
2022-12-09T00:36:24.742Z,25.80
2022-12-09T00:38:54.018Z,25.70
2022-12-09T00:41:21.540Z,24.35
2022-12-09T00:43:51.500Z,24.73
2022-12-09T00:46:19.115Z,26.60
2022-12-09T00:48:47.143Z,26.05
2022-12-09T00:51:23.684Z,25.65
2022-12-09T00:53:54.879Z,25.42
2022-12-09T00:56:26.432Z,26.27
2022-12-09T00:58:54.512Z,25.23
2022-12-09T01:01:24.501Z,24.80
2022-12-09T01:03:52.099Z,25.27
2022-12-09T01:06:22.649Z,23.55
2022-12-09T01:08:50.241Z,25.48
2022-12-09T01:11:26.666Z,23.85
2022-12-09T01:13:57.925Z,25.40
2022-12-09T01:16:27.535Z,24.63
2022-12-09T01:18:57.543Z,24.05
2022-12-09T01:21:25.030Z,23.80
2022-12-09T01:23:53.035Z,24.73
2022-12-09T01:26:21.625Z,23.35
2022-12-09T01:28:53.497Z,21.85
2022-12-09T01:31:24.344Z,24.27
2022-12-09T01:33:52.600Z,24.52
2022-12-09T01:36:23.279Z,23.33
2022-12-09T01:38:51.160Z,23.35
2022-12-09T01:41:20.679Z,23.33
2022-12-09T01:44:26.084Z,24.45
2022-12-09T01:46:56.733Z,24.58
2022-12-09T01:49:28.861Z,24.30
2022-12-09T01:52:11.083Z,25.00
2022-12-09T01:54:41.866Z,24.77
2022-12-09T01:57:09.178Z,24.23
2022-12-09T01:59:37.247Z,23.60
2022-12-09T02:02:08.131Z,22.35
2022-12-09T02:04:41.418Z,22.73
2022-12-09T02:07:10.725Z,22.52
2022-12-09T02:09:40.146Z,22.35
2022-12-09T02:12:12.072Z,23.48
2022-12-09T02:14:55.613Z,24.05
2022-12-09T02:17:27.960Z,25.25
2022-12-09T02:20:39.136Z,23.38
2022-12-09T02:23:35.190Z,26.55
2022-12-09T02:26:30.579Z,26.27
2022-12-09T02:29:24.130Z,25.15
2022-12-09T02:32:01.439Z,26.45
2022-12-09T02:34:34.955Z,26.52
2022-12-09T02:37:16.373Z,27.15
2022-12-09T02:40:21.401Z,26.70
2022-12-09T02:42:51.919Z,27.70
2022-12-09T02:45:22.106Z,28.70
2022-12-09T02:47:54.940Z,28.02
2022-12-09T02:50:26.040Z,26.95
2022-12-09T02:52:56.214Z,28.80
2022-12-09T02:55:23.648Z,27.27
2022-12-09T02:57:56.946Z,27.48
2022-12-09T03:00:27.908Z,29.13
2022-12-09T03:02:59.708Z,29.25
2022-12-09T03:05:34.197Z,28.95
2022-12-09T03:08:10.600Z,28.98
2022-12-09T03:10:44.116Z,28.77
2022-12-09T03:13:22.716Z,28.20
2022-12-09T03:15:57.765Z,28.35
2022-12-09T03:18:29.236Z,28.33
2022-12-09T03:20:56.737Z,27.67
2022-12-09T03:23:27.770Z,28.50
2022-12-09T03:25:56.200Z,27.95
2022-12-09T03:28:30.705Z,28.73
2022-12-09T03:31:02.334Z,28.42
2022-12-09T03:33:32.398Z,26.83
2022-12-09T03:36:04.093Z,27.85
2022-12-09T03:38:36.779Z,26.42
2022-12-09T03:41:14.146Z,27.55
2022-12-09T03:43:48.179Z,27.42
2022-12-09T03:46:15.403Z,24.52
2022-12-09T03:48:42.798Z,27.58
2022-12-09T03:51:17.676Z,26.90
2022-12-09T03:53:49.216Z,26.60
2022-12-09T03:56:27.380Z,25.65
2022-12-09T03:58:57.839Z,25.50
2022-12-09T04:01:31.208Z,24.70
2022-12-09T04:03:58.710Z,26.08
2022-12-09T04:06:26.590Z,25.20
2022-12-09T04:09:01.929Z,25.08
2022-12-09T04:11:29.650Z,24.85
2022-12-09T04:13:59.675Z,24.85
2022-12-09T04:16:29.450Z,25.27
2022-12-09T04:18:56.949Z,26.42
2022-12-09T04:21:24.023Z,25.63
2022-12-09T04:23:51.579Z,25.33
2022-12-09T04:26:21.915Z,24.13
2022-12-09T04:28:50.622Z,24.50
2022-12-09T04:31:19.037Z,23.95
2022-12-09T04:33:47.923Z,23.45
2022-12-09T04:36:18.027Z,22.40
2022-12-09T04:38:46.585Z,23.52
2022-12-09T04:41:16.446Z,20.58
2022-12-09T04:43:44.096Z,21.13
2022-12-09T04:46:14.411Z,19.90
2022-12-09T04:48:41.949Z,19.10
2022-12-09T04:51:11.191Z,19.90
2022-12-09T04:53:40.077Z,19.25
2022-12-09T04:56:21.593Z,20.42
2022-12-09T04:58:50.747Z,21.23
2022-12-09T05:01:29.846Z,21.05
2022-12-09T05:03:59.369Z,22.52
2022-12-09T05:06:27.537Z,21.75
2022-12-09T05:08:55.824Z,22.83
2022-12-09T05:11:24.447Z,21.95
2022-12-09T05:13:53.953Z,22.95
2022-12-09T05:16:21.563Z,23.88
2022-12-09T05:18:50.004Z,23.38
2022-12-09T05:21:20.230Z,22.35
2022-12-09T05:23:49.075Z,22.80
2022-12-09T05:26:20.846Z,22.20
2022-12-09T05:28:49.501Z,21.33
2022-12-09T05:31:19.950Z,22.67
2022-12-09T05:33:48.757Z,21.67
2022-12-09T05:36:19.069Z,24.27
2022-12-09T05:38:48.425Z,21.77
2022-12-09T05:41:16.569Z,24.73
2022-12-09T05:43:44.669Z,23.25
2022-12-09T05:46:13.968Z,22.55
2022-12-09T05:48:41.671Z,21.17
2022-12-09T05:51:14.782Z,22.15
2022-12-09T05:53:42.753Z,22.33
2022-12-09T05:56:10.049Z,20.67
2022-12-09T05:58:37.553Z,22.42
2022-12-09T06:01:07.277Z,21.60
2022-12-09T06:03:36.546Z,19.45
2022-12-09T06:06:12.596Z,18.63
2022-12-09T06:08:41.332Z,18.77
2022-12-09T06:11:17.318Z,16.65
2022-12-09T06:13:46.515Z,15.10
2022-12-09T06:16:14.711Z,15.15
2022-12-09T06:18:42.671Z,15.98
2022-12-09T06:21:12.746Z,14.50
2022-12-09T06:23:41.435Z,16.13
2022-12-09T06:26:17.144Z,13.85
2022-12-09T06:28:45.091Z,13.32
2022-12-09T06:31:13.051Z,13.45
2022-12-09T06:33:58.584Z,14.05
2022-12-09T06:36:29.033Z,14.07
2022-12-09T06:39:00.406Z,13.10
2022-12-09T06:41:32.855Z,13.93
2022-12-09T06:44:02.803Z,14.00
2022-12-09T06:46:32.151Z,13.63
2022-12-09T06:48:59.587Z,13.50
2022-12-09T06:51:26.892Z,14.40
2022-12-09T06:53:55.180Z,13.60
2022-12-09T06:56:23.198Z,13.15
2022-12-09T06:58:51.292Z,13.55
2022-12-09T07:01:21.265Z,14.10
2022-12-09T07:03:52.327Z,14.55
2022-12-09T07:06:26.845Z,14.95
2022-12-09T07:08:59.970Z,14.68
2022-12-09T07:11:28.249Z,15.25
2022-12-09T07:13:56.209Z,14.93
2022-12-09T07:16:23.880Z,15.02
2022-12-09T07:18:51.932Z,13.95
2022-12-09T07:21:21.505Z,14.80
2022-12-09T07:23:49.191Z,14.30
2022-12-09T07:26:17.668Z,14.95
2022-12-09T07:28:47.427Z,14.60
2022-12-09T07:31:34.562Z,14.25
2022-12-09T07:34:03.218Z,14.15
2022-12-09T07:36:33.022Z,14.88
2022-12-09T07:39:07.095Z,14.60
2022-12-09T07:41:34.535Z,15.60
2022-12-09T07:44:02.059Z,15.13
2022-12-09T07:46:29.704Z,15.60
2022-12-09T07:48:58.591Z,16.40
2022-12-09T07:51:26.852Z,15.80
2022-12-09T07:53:54.867Z,17.15
2022-12-09T07:56:23.216Z,16.13
2022-12-09T07:58:54.095Z,16.65
2022-12-09T08:01:26.777Z,16.67
2022-12-09T08:03:55.724Z,17.83
2022-12-09T08:06:27.722Z,17.38
2022-12-09T08:09:01.002Z,16.85
2022-12-09T08:11:30.994Z,17.70
2022-12-09T08:14:04.459Z,18.08
2022-12-09T08:16:36.647Z,17.05
2022-12-09T08:19:04.484Z,17.13
2022-12-09T08:21:33.560Z,17.67
2022-12-09T08:24:07.737Z,17.38
2022-12-09T08:26:37.496Z,17.48
2022-12-09T08:29:11.100Z,17.80
2022-12-09T08:31:42.295Z,18.55
2022-12-09T08:34:14.409Z,17.40
2022-12-09T08:36:42.488Z,16.83
2022-12-09T08:39:11.669Z,17.13
2022-12-09T08:41:40.232Z,17.92
2022-12-09T08:44:10.351Z,16.70
2022-12-09T08:46:40.223Z,17.55
2022-12-09T08:49:08.676Z,18.10
2022-12-09T08:51:37.456Z,17.55
2022-12-09T08:54:07.761Z,17.92
2022-12-09T08:56:35.399Z,18.02
2022-12-09T08:59:04.017Z,17.95
2022-12-09T09:01:34.895Z,17.83
2022-12-09T09:04:09.333Z,17.80
2022-12-09T09:06:38.508Z,18.52
2022-12-09T09:09:07.985Z,20.40
2022-12-09T09:11:36.443Z,18.65
2022-12-09T09:14:05.825Z,20.73
2022-12-09T09:16:35.499Z,20.92
2022-12-09T09:19:06.091Z,19.95
2022-12-09T09:21:34.919Z,20.75
2022-12-09T09:24:03.264Z,23.02
2022-12-09T09:26:30.446Z,20.95
2022-12-09T09:28:58.618Z,22.75
2022-12-09T09:31:28.389Z,23.30
2022-12-09T09:33:56.051Z,22.65
2022-12-09T09:36:25.134Z,22.27
2022-12-09T09:38:55.093Z,23.45
2022-12-09T09:41:38.597Z,21.95
2022-12-09T09:44:21.858Z,21.40
2022-12-09T09:46:51.568Z,20.42
2022-12-09T09:49:54.576Z,21.13
2022-12-09T09:52:24.674Z,22.45
2022-12-09T09:54:53.319Z,20.40
2022-12-09T09:57:36.745Z,19.40
2022-12-09T10:00:11.387Z,19.73
2022-12-09T10:02:58.214Z,19.17
2022-12-09T10:05:31.693Z,18.02
2022-12-09T10:08:24.053Z,17.45
2022-12-09T10:11:09.135Z,18.10
2022-12-09T10:14:22.155Z,16.85
2022-12-09T10:16:57.822Z,15.75
2022-12-09T10:19:33.702Z,15.10
2022-12-09T10:22:12.795Z,14.65
2022-12-09T10:25:08.170Z,15.63
2022-12-09T10:27:49.253Z,15.00
2022-12-09T10:30:19.102Z,14.70
2022-12-09T10:32:47.609Z,14.48
2022-12-09T10:35:17.693Z,13.93
2022-12-09T10:37:46.072Z,14.43
2022-12-09T10:40:20.297Z,14.05
2022-12-09T10:43:06.449Z,13.95
2022-12-09T10:46:07.857Z,13.55
2022-12-09T10:48:33.367Z,13.40
2022-12-09T10:51:06.110Z,12.90
2022-12-09T10:53:36.027Z,14.02
2022-12-09T10:56:04.225Z,13.93
2022-12-09T10:58:32.597Z,12.65
2022-12-09T11:01:08.732Z,12.60
2022-12-09T11:03:53.623Z,11.93
2022-12-09T11:06:31.367Z,12.52
2022-12-09T11:09:03.243Z,13.18
2022-12-09T11:11:45.716Z,11.65
2022-12-09T11:14:23.220Z,12.25
2022-12-09T11:16:57.267Z,11.65
2022-12-09T11:19:39.057Z,11.70
2022-12-09T11:22:39.635Z,11.93
2022-12-09T11:25:14.029Z,12.18
2022-12-09T11:27:50.259Z,11.45
2022-12-09T11:30:23.713Z,11.35
2022-12-09T11:32:56.683Z,10.60
2022-12-09T11:35:32.255Z,10.40
2022-12-09T11:38:04.886Z,11.63
2022-12-09T11:40:32.751Z,11.40
2022-12-09T11:42:59.910Z,10.80
2022-12-09T11:45:37.000Z,11.45
2022-12-09T11:48:33.960Z,10.68
2022-12-09T11:51:02.487Z,10.48
2022-12-09T11:53:31.985Z,10.30
2022-12-09T11:56:17.782Z,10.43
2022-12-09T11:58:55.916Z,8.13
2022-12-09T12:02:01.602Z,10.48
2022-12-09T12:04:39.251Z,10.38
2022-12-09T12:07:57.866Z,9.80
2022-12-09T12:10:34.431Z,8.85
2022-12-09T12:13:20.597Z,9.20
2022-12-09T12:16:08.833Z,10.32
2022-12-09T12:18:56.280Z,9.07
2022-12-09T12:21:36.209Z,9.48
2022-12-09T12:24:28.577Z,9.63
2022-12-09T12:27:19.518Z,9.52
2022-12-09T12:30:02.183Z,8.60
2022-12-09T12:32:29.235Z,8.93
2022-12-09T12:35:02.905Z,8.65
2022-12-09T12:38:14.687Z,9.60
2022-12-09T12:40:57.214Z,9.02
2022-12-09T12:43:49.297Z,9.05
2022-12-09T12:46:27.542Z,8.52
2022-12-09T12:49:24.547Z,8.43
2022-12-09T12:55:48.032Z,7.93
2022-12-09T12:58:30.954Z,7.82
2022-12-09T13:01:04.343Z,8.10
2022-12-09T13:03:40.980Z,8.48
2022-12-09T13:06:13.763Z,7.82
2022-12-09T13:08:48.815Z,8.35
2022-12-09T13:11:27.005Z,9.20
2022-12-09T13:13:59.177Z,9.23
2022-12-09T13:16:34.559Z,15.70
2022-12-09T13:19:11.860Z,9.85
2022-12-09T13:21:39.505Z,13.63
2022-12-09T13:24:37.855Z,15.60
2022-12-09T13:27:25.878Z,9.05
2022-12-09T13:30:01.440Z,9.48
2022-12-09T13:33:06.958Z,8.85
2022-12-09T13:35:43.751Z,9.82
2022-12-09T13:38:26.174Z,9.50
2022-12-09T13:40:53.609Z,9.80
2022-12-09T13:43:28.561Z,7.20
2022-12-09T13:46:01.565Z,7.72
2022-12-09T13:48:44.731Z,7.28
2022-12-09T13:51:13.545Z,7.90
2022-12-09T13:53:49.496Z,8.80
2022-12-09T13:56:16.956Z,7.50
2022-12-09T13:59:21.558Z,7.03
2022-12-09T14:02:01.531Z,6.00
2022-12-09T14:04:36.300Z,6.53
2022-12-09T14:07:42.154Z,6.68
2022-12-09T14:10:39.214Z,5.97
2022-12-09T14:13:24.319Z,6.38
2022-12-09T14:16:18.629Z,6.30
2022-12-09T14:18:46.116Z,5.70
2022-12-09T14:21:19.241Z,5.65
2022-12-09T14:24:08.408Z,6.35
2022-12-09T14:26:42.069Z,6.05
2022-12-09T14:29:10.203Z,7.38
2022-12-09T14:31:49.272Z,6.13
2022-12-09T14:34:24.446Z,7.03
2022-12-09T14:37:12.758Z,7.88
2022-12-09T14:40:07.539Z,8.10
2022-12-09T14:42:50.671Z,7.97
2022-12-09T14:45:47.189Z,6.30
2022-12-09T14:48:21.603Z,5.80
2022-12-09T14:51:06.785Z,6.93
2022-12-09T14:53:37.570Z,7.47
2022-12-09T14:56:05.827Z,6.50
2022-12-09T14:58:33.284Z,7.30
2022-12-09T15:01:06.059Z,6.93
2022-12-09T15:03:39.436Z,7.32
2022-12-09T15:06:18.061Z,7.13
2022-12-09T15:08:46.176Z,8.57
2022-12-09T15:11:35.540Z,7.88
2022-12-09T15:14:27.966Z,7.60
2022-12-09T15:16:57.132Z,7.28
2022-12-09T15:19:59.190Z,7.88
2022-12-09T15:22:24.944Z,6.57
2022-12-09T15:24:53.944Z,7.57
2022-12-09T15:27:25.176Z,8.15
2022-12-09T15:29:54.474Z,7.88
2022-12-09T15:32:29.195Z,7.68
2022-12-09T15:35:12.408Z,9.10
2022-12-09T15:37:43.888Z,8.05
2022-12-09T15:40:14.299Z,8.55
2022-12-09T15:42:46.363Z,8.32
2022-12-09T15:45:18.637Z,8.57
2022-12-09T15:47:50.051Z,9.32
2022-12-09T15:50:48.496Z,8.95
2022-12-09T15:53:25.546Z,9.27
2022-12-09T15:56:03.034Z,8.52
2022-12-09T15:58:38.595Z,7.55
2022-12-09T16:01:09.350Z,8.38
2022-12-09T16:03:38.553Z,8.85
2022-12-09T16:06:10.003Z,8.38
2022-12-09T16:08:42.085Z,8.65
2022-12-09T16:11:12.470Z,8.27
2022-12-09T16:14:07.596Z,8.50
2022-12-09T16:16:58.564Z,9.10
2022-12-09T16:19:29.102Z,9.02
2022-12-09T16:22:19.790Z,8.90
2022-12-09T16:27:47.002Z,8.05
2022-12-09T16:30:19.242Z,7.43
2022-12-09T16:32:51.704Z,8.48
2022-12-09T16:35:29.468Z,9.15
2022-12-09T16:38:12.366Z,8.43
2022-12-09T16:40:49.824Z,8.75
2022-12-09T16:43:17.632Z,8.70
2022-12-09T16:45:52.488Z,9.07
2022-12-09T16:48:22.639Z,11.57
2022-12-09T16:50:54.543Z,13.02
2022-12-09T16:53:30.964Z,13.45
2022-12-09T16:56:01.467Z,13.70
2022-12-09T16:58:31.689Z,22.60
2022-12-09T17:01:01.554Z,23.45
2022-12-09T17:03:40.767Z,15.13
2022-12-09T17:06:16.217Z,20.15
2022-12-09T17:08:47.872Z,13.95
2022-12-09T17:11:22.231Z,13.80
2022-12-09T17:13:51.806Z,12.68
2022-12-09T17:16:22.747Z,13.00
2022-12-09T17:18:51.757Z,12.48
2022-12-09T17:21:19.941Z,12.90
2022-12-09T17:23:49.250Z,13.80
2022-12-09T17:26:21.204Z,14.65
2022-12-09T17:28:51.168Z,14.88
2022-12-09T17:31:23.476Z,17.30
2022-12-09T17:33:55.864Z,13.95
2022-12-09T17:36:24.159Z,14.85
2022-12-09T17:38:52.640Z,12.90
2022-12-09T17:41:24.198Z,11.82
2022-12-09T17:43:52.062Z,12.02
2022-12-09T17:46:20.931Z,12.25
2022-12-09T17:48:48.661Z,12.00
2022-12-09T17:51:20.074Z,10.75
2022-12-09T17:53:50.601Z,12.30
2022-12-09T17:56:24.249Z,10.75
2022-12-09T17:58:59.860Z,12.35
2022-12-09T18:01:27.811Z,14.15
2022-12-09T18:04:06.193Z,16.60
2022-12-09T18:06:45.258Z,15.15
2022-12-09T18:09:16.694Z,15.68
2022-12-09T18:11:45.438Z,14.60
2022-12-09T18:14:15.854Z,15.10
2022-12-09T18:16:47.115Z,12.73
2022-12-09T18:19:16.652Z,12.55
2022-12-09T18:21:46.345Z,12.25
2022-12-09T18:24:14.214Z,11.60
2022-12-09T18:26:42.634Z,11.02
2022-12-09T18:29:11.795Z,12.07
2022-12-09T18:31:46.214Z,12.15
2022-12-09T18:34:14.393Z,12.10
2022-12-09T18:36:42.356Z,12.60
2022-12-09T18:39:10.235Z,12.40
2022-12-09T18:41:38.472Z,12.95
2022-12-09T18:44:09.475Z,12.50
2022-12-09T18:46:41.088Z,12.68
2022-12-09T18:49:16.053Z,13.95
2022-12-09T18:51:45.317Z,12.73
2022-12-09T18:54:27.886Z,13.20
2022-12-09T18:57:02.693Z,13.77
2022-12-09T18:59:31.687Z,12.90
2022-12-09T19:02:00.891Z,12.10
2022-12-09T19:04:30.594Z,13.65
2022-12-09T19:07:02.053Z,12.73
2022-12-09T19:09:34.532Z,12.25
2022-12-09T19:12:47.161Z,12.10
2022-12-09T19:14:54.267Z,11.27
2022-12-09T19:17:24.985Z,10.68
2022-12-09T19:19:56.178Z,11.70
2022-12-09T19:22:24.449Z,10.70
2022-12-09T19:24:52.681Z,9.73
2022-12-09T19:27:20.696Z,10.18
2022-12-09T19:29:49.617Z,8.93
2022-12-09T19:32:51.312Z,9.32
2022-12-09T19:35:10.873Z,9.02
2022-12-09T19:37:38.749Z,9.48
2022-12-09T19:40:07.838Z,9.20
2022-12-09T19:42:37.476Z,7.97
2022-12-09T19:45:10.572Z,8.88
2022-12-09T19:47:43.635Z,10.98
2022-12-09T19:50:11.737Z,10.40
2022-12-09T19:52:40.813Z,9.40
2022-12-09T19:55:13.953Z,8.88
2022-12-09T19:57:44.952Z,9.20
2022-12-09T20:00:14.213Z,9.32
2022-12-09T20:02:45.778Z,10.38
2022-12-09T20:05:14.753Z,10.10
2022-12-09T20:07:43.674Z,11.25
2022-12-09T20:10:13.802Z,11.48
2022-12-09T20:12:41.700Z,10.43
2022-12-09T20:15:12.669Z,11.13
2022-12-09T20:17:41.638Z,11.15
2022-12-09T20:20:10.829Z,11.50
2022-12-09T20:22:39.806Z,9.75
2022-12-09T20:25:11.214Z,10.23
2022-12-09T20:27:39.815Z,9.20
2022-12-09T20:30:08.552Z,10.27
2022-12-09T20:32:37.163Z,9.93
2022-12-09T20:35:09.649Z,10.18
2022-12-09T20:37:38.539Z,10.77
2022-12-09T20:40:10.558Z,10.52
2022-12-09T20:42:38.981Z,11.93
2022-12-09T20:45:09.321Z,12.75
2022-12-09T20:47:38.115Z,14.70
2022-12-09T20:50:07.087Z,12.68
2022-12-09T20:52:35.685Z,12.38
2022-12-09T20:55:03.607Z,11.90
2022-12-09T20:57:32.681Z,10.35
2022-12-09T21:00:00.724Z,10.38
2022-12-09T21:02:30.056Z,10.70
2022-12-09T21:05:01.540Z,10.13
2022-12-09T21:07:30.175Z,10.80
2022-12-09T21:10:01.020Z,9.27
2022-12-09T21:12:29.804Z,9.50
2022-12-09T21:14:58.119Z,9.90
2022-12-09T21:17:26.485Z,10.07
2022-12-09T21:19:56.713Z,10.50
2022-12-09T21:22:27.137Z,11.02
2022-12-09T21:24:55.423Z,11.30
2022-12-09T21:27:26.735Z,12.38
2022-12-09T21:29:58.182Z,13.15
2022-12-09T21:32:26.804Z,12.57
2022-12-09T21:34:58.225Z,13.23
2022-12-09T21:37:26.013Z,12.73
2022-12-09T21:39:53.738Z,13.23
2022-12-09T21:42:21.887Z,12.93
2022-12-09T21:44:50.212Z,11.82
2022-12-09T21:47:22.636Z,12.60
2022-12-09T21:49:50.200Z,11.90
2022-12-09T21:52:17.664Z,12.80
2022-12-09T21:54:45.026Z,12.73
2022-12-09T21:57:12.603Z,14.30
2022-12-09T21:59:39.846Z,13.90
2022-12-09T22:02:07.818Z,13.60
2022-12-09T22:04:35.189Z,14.55
2022-12-09T22:07:02.929Z,14.48
2022-12-09T22:09:30.014Z,14.52
2022-12-09T22:11:57.519Z,16.20
2022-12-09T22:14:24.663Z,16.48
2022-12-09T22:16:52.248Z,16.33
2022-12-09T22:19:22.536Z,15.52
2022-12-09T22:21:50.505Z,16.92
2022-12-09T22:24:18.463Z,16.95
2022-12-09T22:26:46.349Z,17.40
2022-12-09T22:29:15.581Z,17.83
2022-12-09T22:31:44.539Z,17.27
2022-12-09T22:34:14.616Z,19.45
2022-12-09T22:36:42.172Z,18.95
2022-12-09T22:39:14.049Z,19.08
2022-12-09T22:41:43.772Z,18.25
2022-12-09T22:44:13.560Z,18.50
2022-12-09T22:46:42.317Z,17.95
2022-12-09T22:49:14.220Z,18.75
2022-12-09T22:51:42.670Z,17.90
2022-12-09T22:54:10.339Z,18.35
2022-12-09T22:56:39.835Z,18.98
2022-12-09T22:59:07.303Z,19.20
2022-12-09T23:01:38.967Z,17.80
2022-12-09T23:04:08.405Z,17.83
2022-12-09T23:06:37.726Z,18.40
2022-12-09T23:09:07.288Z,17.30
2022-12-09T23:11:35.200Z,17.38
2022-12-09T23:14:02.654Z,15.15
2022-12-09T23:16:30.552Z,15.85
2022-12-09T23:18:59.095Z,15.68
2022-12-09T23:21:37.696Z,14.65
2022-12-09T23:24:10.204Z,14.63
2022-12-09T23:26:42.369Z,14.32
2022-12-09T23:29:14.358Z,13.82
2022-12-09T23:31:42.692Z,13.10
2022-12-09T23:34:15.179Z,13.95
2022-12-09T23:36:43.971Z,13.90
2022-12-09T23:39:14.435Z,11.77
2022-12-09T23:41:43.741Z,13.25
2022-12-09T23:44:19.151Z,13.15
2022-12-09T23:46:47.084Z,12.30
2022-12-09T23:49:14.919Z,11.20
2022-12-09T23:51:44.123Z,11.50
2022-12-09T23:54:15.852Z,12.10
2022-12-09T23:56:48.093Z,12.35
2022-12-09T23:59:22.760Z,11.50
